This is the latest recevied weather packets stored in our database for station/object LA9UTA-13. If no packets are shown the sender has not sent any weather packets the latest 1 day(s).
| Time | Temp. | Humidity | Pressure | Rain* | Wind** | Luminosity | Snow |
|---|---|---|---|---|---|---|---|
| 1778103482 | 3.89° C | 46% | 1014 hPa | 0 mm | - | 0 W/m² | - |
| 1778102282 | 3.33° C | 52% | 1013 hPa | 0 mm | - | 0 W/m² | - |
| 1778100644 | 3.89° C | 52% | 1014 hPa | 0 mm | - | 0 W/m² | - |
| 1778099882 | 3.89° C | 52% | 1014 hPa | 0 mm | - | 0 W/m² | - |
| 1778096282 | 6.67° C | 41% | 1012.7 hPa | 0 mm | - | 2 W/m² | - |
| 1778095082 | 6.67° C | 44% | 1012.7 hPa | 0 mm | - | 5 W/m² | - |
| 1778089082 | 11.67° C | 26% | 1011.2 hPa | 0 mm | - | 94 W/m² | - |
| 1778086682 | 11.67° C | 27% | 1011.2 hPa | 0 mm | - | 146 W/m² | - |
| 1778085482 | 12.78° C | 27% | 1011.1 hPa | 0 mm | - | 223 W/m² | - |
| 1778083082 | 10° C | 28% | 1011.3 hPa | 0 mm | - | 96 W/m² | - |
| 1778078282 | 10° C | 25% | 1011.4 hPa | 0 mm | - | 92 W/m² | - |
| 1778074682 | 11.11° C | 24% | 1012.2 hPa | 0 mm | - | 460 W/m² | - |
| 1778073482 | 12.22° C | 26% | 1011.1 hPa | 0 mm | - | 61 W/m² | - |
| 1778071082 | 11.67° C | 28% | 1012.2 hPa | 0 mm | - | 523 W/m² | - |
| 1778063882 | 10.56° C | 30% | 1012.3 hPa | 0 mm | - | 601 W/m² | - |
| 1778057882 | 7.22° C | 33% | 1012.6 hPa | 0 mm | - | 473 W/m² | - |
| 1778056681 | 7.78° C | 35% | 1012.6 hPa | 0 mm | - | 446 W/m² | - |
| 1778054281 | 8.89° C | 33% | 1013.4 hPa | 0 mm | - | 383 W/m² | - |
| 1778053231 | 5.56° C | 40% | 1013.8 hPa | 0 mm | - | 278 W/m² | - |
| 1778050681 | 5.56° C | 40% | 1013.8 hPa | 0 mm | - | 278 W/m² | - |
| 1778045881 | 4.44° C | 54% | 1012.9 hPa | 0 mm | - | 128 W/m² | - |
| 1778043482 | 2.78° C | 58% | 1013.1 hPa | 0 mm | - | 71 W/m² | - |
| 1778042282 | 0.56° C | 63% | 1013.3 hPa | 0 mm | - | 49 W/m² | - |
| 1778041081 | 0.56° C | 61% | 1013.3 hPa | 0 mm | - | 33 W/m² | - |
| 1778039881 | -1.11° C | 69% | 1013.4 hPa | 0 mm | - | 20 W/m² | - |
* Rain latest hour (hover to see other rain measurements)
** Current wind speed in m/s (hover to see current wind gust speed)